sensor_id;sensor_type;location;lat;lon;timestamp;P1;durP1;ratioP1;P2;durP2;ratioP2
14205;SDS011;7186;48.800;9.216;2023-07-31T00:00:38;1186.53;;;999.90;;
14205;SDS011;7186;48.800;9.216;2023-07-31T00:03:03;1199.27;;;999.90;;
14205;SDS011;7186;48.800;9.216;2023-07-31T00:05:28;1145.47;;;999.90;;
14205;SDS011;7186;48.800;9.216;2023-07-31T00:07:54;1097.77;;;999.90;;
14205;SDS011;7186;48.800;9.216;2023-07-31T00:10:19;1119.80;;;999.90;;
14205;SDS011;7186;48.800;9.216;2023-07-31T00:12:45;1108.37;;;999.90;;
14205;SDS011;7186;48.800;9.216;2023-07-31T00:16:11;1098.77;;;999.90;;
14205;SDS011;7186;48.800;9.216;2023-07-31T00:18:36;1101.17;;;999.90;;
14205;SDS011;7186;48.800;9.216;2023-07-31T00:21:02;1081.23;;;998.87;;
14205;SDS011;7186;48.800;9.216;2023-07-31T00:23:27;1111.63;;;999.90;;
14205;SDS011;7186;48.800;9.216;2023-07-31T00:25:52;1076.00;;;995.13;;
14205;SDS011;7186;48.800;9.216;2023-07-31T00:28:17;1101.47;;;999.90;;
14205;SDS011;7186;48.800;9.216;2023-07-31T00:30:42;1138.50;;;999.90;;
14205;SDS011;7186;48.800;9.216;2023-07-31T00:33:08;1100.77;;;999.90;;
14205;SDS011;7186;48.800;9.216;2023-07-31T00:35:33;1161.93;;;999.90;;
14205;SDS011;7186;48.800;9.216;2023-07-31T00:37:58;1229.37;;;999.90;;
14205;SDS011;7186;48.800;9.216;2023-07-31T00:41:41;1179.07;;;999.90;;
14205;SDS011;7186;48.800;9.216;2023-07-31T00:44:07;1162.33;;;999.90;;
14205;SDS011;7186;48.800;9.216;2023-07-31T00:46:32;1180.13;;;999.90;;
14205;SDS011;7186;48.800;9.216;2023-07-31T00:48:57;1162.77;;;999.90;;
14205;SDS011;7186;48.800;9.216;2023-07-31T00:51:22;1181.00;;;999.90;;
14205;SDS011;7186;48.800;9.216;2023-07-31T00:53:48;1152.40;;;999.90;;
14205;SDS011;7186;48.800;9.216;2023-07-31T00:56:13;1146.20;;;999.90;;
14205;SDS011;7186;48.800;9.216;2023-07-31T00:58:38;1165.23;;;999.90;;
14205;SDS011;7186;48.800;9.216;2023-07-31T01:01:04;1164.80;;;999.90;;
14205;SDS011;7186;48.800;9.216;2023-07-31T01:06:44;1162.43;;;999.90;;
14205;SDS011;7186;48.800;9.216;2023-07-31T01:09:14;1195.10;;;999.90;;
14205;SDS011;7186;48.800;9.216;2023-07-31T01:11:52;1181.17;;;999.90;;
14205;SDS011;7186;48.800;9.216;2023-07-31T01:14:18;1181.63;;;999.90;;
14205;SDS011;7186;48.800;9.216;2023-07-31T01:16:43;1181.80;;;999.90;;
14205;SDS011;7186;48.800;9.216;2023-07-31T01:19:08;1177.07;;;999.90;;
14205;SDS011;7186;48.800;9.216;2023-07-31T01:26:34;1130.73;;;999.90;;
14205;SDS011;7186;48.800;9.216;2023-07-31T01:29:02;1160.30;;;999.90;;
14205;SDS011;7186;48.800;9.216;2023-07-31T01:33:41;1155.97;;;999.90;;
14205;SDS011;7186;48.800;9.216;2023-07-31T01:36:06;1177.47;;;999.90;;
14205;SDS011;7186;48.800;9.216;2023-07-31T01:38:32;1136.20;;;999.90;;
14205;SDS011;7186;48.800;9.216;2023-07-31T01:40:57;1158.30;;;999.90;;
14205;SDS011;7186;48.800;9.216;2023-07-31T01:43:23;1154.90;;;999.90;;
14205;SDS011;7186;48.800;9.216;2023-07-31T01:45:49;1164.30;;;999.90;;
14205;SDS011;7186;48.800;9.216;2023-07-31T01:48:14;1173.07;;;999.90;;
14205;SDS011;7186;48.800;9.216;2023-07-31T01:50:39;1133.97;;;999.90;;
14205;SDS011;7186;48.800;9.216;2023-07-31T01:53:04;1150.70;;;999.90;;
14205;SDS011;7186;48.800;9.216;2023-07-31T01:58:10;1147.03;;;999.90;;
14205;SDS011;7186;48.800;9.216;2023-07-31T02:00:36;1137.63;;;999.90;;
14205;SDS011;7186;48.800;9.216;2023-07-31T02:03:01;1114.00;;;999.90;;
14205;SDS011;7186;48.800;9.216;2023-07-31T02:05:26;1089.43;;;999.90;;
14205;SDS011;7186;48.800;9.216;2023-07-31T02:07:51;1090.13;;;999.90;;
14205;SDS011;7186;48.800;9.216;2023-07-31T02:10:16;1074.70;;;995.00;;
14205;SDS011;7186;48.800;9.216;2023-07-31T02:12:42;1103.43;;;999.90;;
14205;SDS011;7186;48.800;9.216;2023-07-31T02:15:07;1053.60;;;974.63;;
14205;SDS011;7186;48.800;9.216;2023-07-31T02:17:32;1073.30;;;994.40;;
14205;SDS011;7186;48.800;9.216;2023-07-31T02:22:33;1045.37;;;965.00;;
14205;SDS011;7186;48.800;9.216;2023-07-31T02:24:58;1103.97;;;999.90;;
14205;SDS011;7186;48.800;9.216;2023-07-31T02:27:23;1106.00;;;999.90;;
14205;SDS011;7186;48.800;9.216;2023-07-31T02:29:52;1112.97;;;999.90;;
14205;SDS011;7186;48.800;9.216;2023-07-31T02:32:17;1115.80;;;999.90;;
14205;SDS011;7186;48.800;9.216;2023-07-31T02:34:42;1120.70;;;999.90;;
14205;SDS011;7186;48.800;9.216;2023-07-31T02:37:07;1133.27;;;999.90;;
14205;SDS011;7186;48.800;9.216;2023-07-31T02:39:33;1149.17;;;999.90;;
14205;SDS011;7186;48.800;9.216;2023-07-31T02:41:58;1166.20;;;999.90;;
14205;SDS011;7186;48.800;9.216;2023-07-31T02:44:23;1136.73;;;999.90;;
14205;SDS011;7186;48.800;9.216;2023-07-31T02:48:01;1157.20;;;999.90;;
14205;SDS011;7186;48.800;9.216;2023-07-31T02:50:26;1137.83;;;999.90;;
14205;SDS011;7186;48.800;9.216;2023-07-31T02:52:53;1153.10;;;999.90;;
14205;SDS011;7186;48.800;9.216;2023-07-31T02:55:18;1153.93;;;999.90;;
14205;SDS011;7186;48.800;9.216;2023-07-31T02:57:44;1161.77;;;999.90;;
14205;SDS011;7186;48.800;9.216;2023-07-31T03:00:09;1158.23;;;999.90;;
14205;SDS011;7186;48.800;9.216;2023-07-31T03:02:34;1136.63;;;999.90;;
14205;SDS011;7186;48.800;9.216;2023-07-31T03:05:00;1153.10;;;999.90;;
14205;SDS011;7186;48.800;9.216;2023-07-31T03:07:25;1129.40;;;999.90;;
14205;SDS011;7186;48.800;9.216;2023-07-31T03:12:26;1125.80;;;999.90;;
14205;SDS011;7186;48.800;9.216;2023-07-31T03:14:51;1152.00;;;999.90;;
14205;SDS011;7186;48.800;9.216;2023-07-31T03:17:16;1150.37;;;999.90;;
14205;SDS011;7186;48.800;9.216;2023-07-31T03:19:41;1117.13;;;999.90;;
14205;SDS011;7186;48.800;9.216;2023-07-31T03:22:06;1128.77;;;999.90;;
14205;SDS011;7186;48.800;9.216;2023-07-31T03:24:32;1099.97;;;999.90;;
14205;SDS011;7186;48.800;9.216;2023-07-31T03:26:57;1106.37;;;999.90;;
14205;SDS011;7186;48.800;9.216;2023-07-31T03:29:22;1112.60;;;999.90;;
14205;SDS011;7186;48.800;9.216;2023-07-31T03:31:47;1104.87;;;999.90;;
14205;SDS011;7186;48.800;9.216;2023-07-31T03:35:54;1114.27;;;999.90;;
14205;SDS011;7186;48.800;9.216;2023-07-31T03:38:19;1105.00;;;999.90;;
14205;SDS011;7186;48.800;9.216;2023-07-31T03:40:45;1115.97;;;999.90;;
14205;SDS011;7186;48.800;9.216;2023-07-31T03:43:10;1103.47;;;999.90;;
14205;SDS011;7186;48.800;9.216;2023-07-31T03:45:35;1105.37;;;999.90;;
14205;SDS011;7186;48.800;9.216;2023-07-31T03:48:01;1094.60;;;999.90;;
14205;SDS011;7186;48.800;9.216;2023-07-31T03:50:26;1119.47;;;999.90;;
14205;SDS011;7186;48.800;9.216;2023-07-31T03:52:52;1110.93;;;999.90;;
14205;SDS011;7186;48.800;9.216;2023-07-31T03:55:17;1112.23;;;999.90;;
14205;SDS011;7186;48.800;9.216;2023-07-31T03:59:50;1062.67;;;980.63;;
14205;SDS011;7186;48.800;9.216;2023-07-31T04:02:15;1051.13;;;968.37;;
14205;SDS011;7186;48.800;9.216;2023-07-31T04:04:41;1088.23;;;999.90;;
14205;SDS011;7186;48.800;9.216;2023-07-31T04:07:06;1089.30;;;999.90;;
14205;SDS011;7186;48.800;9.216;2023-07-31T04:09:31;1106.73;;;999.90;;
14205;SDS011;7186;48.800;9.216;2023-07-31T04:11:56;1071.70;;;986.37;;
14205;SDS011;7186;48.800;9.216;2023-07-31T04:14:21;1101.47;;;999.90;;
14205;SDS011;7186;48.800;9.216;2023-07-31T04:16:47;1098.73;;;999.90;;
14205;SDS011;7186;48.800;9.216;2023-07-31T04:19:12;1110.93;;;999.90;;
14205;SDS011;7186;48.800;9.216;2023-07-31T04:24:19;1058.57;;;976.83;;
14205;SDS011;7186;48.800;9.216;2023-07-31T04:26:49;1075.17;;;993.73;;
14205;SDS011;7186;48.800;9.216;2023-07-31T04:29:15;1066.73;;;986.07;;
14205;SDS011;7186;48.800;9.216;2023-07-31T04:31:40;1085.97;;;999.70;;
14205;SDS011;7186;48.800;9.216;2023-07-31T04:34:06;1041.10;;;958.87;;
14205;SDS011;7186;48.800;9.216;2023-07-31T04:36:31;1077.63;;;994.13;;
14205;SDS011;7186;48.800;9.216;2023-07-31T04:38:56;1065.17;;;982.10;;
14205;SDS011;7186;48.800;9.216;2023-07-31T04:41:21;1064.53;;;982.00;;
14205;SDS011;7186;48.800;9.216;2023-07-31T04:43:46;1078.47;;;995.90;;
14205;SDS011;7186;48.800;9.216;2023-07-31T04:48:34;1047.77;;;966.70;;
14205;SDS011;7186;48.800;9.216;2023-07-31T04:51:00;1075.87;;;994.27;;
14205;SDS011;7186;48.800;9.216;2023-07-31T04:53:25;1079.37;;;995.07;;
14205;SDS011;7186;48.800;9.216;2023-07-31T04:55:50;1081.90;;;996.83;;
14205;SDS011;7186;48.800;9.216;2023-07-31T04:58:15;1126.87;;;999.90;;
14205;SDS011;7186;48.800;9.216;2023-07-31T05:00:40;1108.87;;;999.90;;
14205;SDS011;7186;48.800;9.216;2023-07-31T05:03:06;1126.80;;;999.90;;
14205;SDS011;7186;48.800;9.216;2023-07-31T05:05:32;1123.27;;;999.90;;
14205;SDS011;7186;48.800;9.216;2023-07-31T05:07:57;1125.43;;;999.90;;
14205;SDS011;7186;48.800;9.216;2023-07-31T05:10:22;1135.43;;;999.90;;
14205;SDS011;7186;48.800;9.216;2023-07-31T05:15:28;1130.17;;;999.90;;
14205;SDS011;7186;48.800;9.216;2023-07-31T05:17:53;1131.60;;;999.90;;
14205;SDS011;7186;48.800;9.216;2023-07-31T05:20:18;1099.47;;;999.90;;
14205;SDS011;7186;48.800;9.216;2023-07-31T05:22:44;1113.57;;;999.90;;
14205;SDS011;7186;48.800;9.216;2023-07-31T05:25:09;1135.37;;;999.90;;
14205;SDS011;7186;48.800;9.216;2023-07-31T05:27:34;1124.67;;;999.90;;
14205;SDS011;7186;48.800;9.216;2023-07-31T05:29:59;1123.33;;;999.90;;
14205;SDS011;7186;48.800;9.216;2023-07-31T05:32:24;1119.30;;;999.90;;
14205;SDS011;7186;48.800;9.216;2023-07-31T05:34:52;1133.97;;;999.90;;
14205;SDS011;7186;48.800;9.216;2023-07-31T05:39:43;1131.23;;;999.90;;
14205;SDS011;7186;48.800;9.216;2023-07-31T05:42:08;1122.97;;;999.90;;
14205;SDS011;7186;48.800;9.216;2023-07-31T05:44:34;1136.90;;;999.90;;
14205;SDS011;7186;48.800;9.216;2023-07-31T05:46:59;1128.80;;;999.90;;
14205;SDS011;7186;48.800;9.216;2023-07-31T05:49:24;1137.43;;;999.90;;
14205;SDS011;7186;48.800;9.216;2023-07-31T05:51:49;1127.30;;;999.90;;
14205;SDS011;7186;48.800;9.216;2023-07-31T05:54:15;1131.70;;;999.90;;
14205;SDS011;7186;48.800;9.216;2023-07-31T05:56:40;1130.17;;;999.90;;
14205;SDS011;7186;48.800;9.216;2023-07-31T05:59:05;1150.27;;;999.90;;
14205;SDS011;7186;48.800;9.216;2023-07-31T06:04:27;1138.60;;;999.90;;
14205;SDS011;7186;48.800;9.216;2023-07-31T06:06:53;1143.70;;;999.90;;
14205;SDS011;7186;48.800;9.216;2023-07-31T06:09:18;1147.60;;;999.90;;
14205;SDS011;7186;48.800;9.216;2023-07-31T06:11:43;1162.07;;;999.90;;
14205;SDS011;7186;48.800;9.216;2023-07-31T06:14:08;1154.97;;;999.90;;
14205;SDS011;7186;48.800;9.216;2023-07-31T06:16:34;1145.97;;;999.90;;
14205;SDS011;7186;48.800;9.216;2023-07-31T06:18:59;1181.93;;;999.90;;
14205;SDS011;7186;48.800;9.216;2023-07-31T06:21:24;1170.37;;;999.90;;
14205;SDS011;7186;48.800;9.216;2023-07-31T06:23:49;1146.40;;;999.90;;
14205;SDS011;7186;48.800;9.216;2023-07-31T06:28:40;1167.70;;;999.90;;
14205;SDS011;7186;48.800;9.216;2023-07-31T06:31:05;1160.17;;;999.90;;
14205;SDS011;7186;48.800;9.216;2023-07-31T06:33:30;1144.90;;;999.90;;
14205;SDS011;7186;48.800;9.216;2023-07-31T06:35:56;1120.53;;;999.90;;
14205;SDS011;7186;48.800;9.216;2023-07-31T06:38:24;1153.03;;;999.90;;
14205;SDS011;7186;48.800;9.216;2023-07-31T06:40:50;1141.63;;;999.90;;
14205;SDS011;7186;48.800;9.216;2023-07-31T06:43:15;1129.40;;;999.90;;
14205;SDS011;7186;48.800;9.216;2023-07-31T06:45:40;1138.80;;;999.90;;
14205;SDS011;7186;48.800;9.216;2023-07-31T06:48:05;1136.83;;;999.90;;
14205;SDS011;7186;48.800;9.216;2023-07-31T06:50:31;1149.57;;;999.90;;
14205;SDS011;7186;48.800;9.216;2023-07-31T06:54:09;1174.90;;;999.90;;
14205;SDS011;7186;48.800;9.216;2023-07-31T06:56:34;1166.37;;;999.90;;
14205;SDS011;7186;48.800;9.216;2023-07-31T06:58:59;1174.10;;;999.90;;
14205;SDS011;7186;48.800;9.216;2023-07-31T07:01:25;1174.20;;;999.90;;
14205;SDS011;7186;48.800;9.216;2023-07-31T07:03:50;1154.17;;;999.90;;
14205;SDS011;7186;48.800;9.216;2023-07-31T07:06:16;1156.90;;;999.90;;
14205;SDS011;7186;48.800;9.216;2023-07-31T07:08:41;1144.23;;;999.90;;
14205;SDS011;7186;48.800;9.216;2023-07-31T07:11:07;1120.40;;;999.90;;
14205;SDS011;7186;48.800;9.216;2023-07-31T07:13:33;1194.20;;;999.90;;
14205;SDS011;7186;48.800;9.216;2023-07-31T07:18:41;1202.20;;;999.90;;
14205;SDS011;7186;48.800;9.216;2023-07-31T07:21:06;1208.70;;;999.90;;
14205;SDS011;7186;48.800;9.216;2023-07-31T07:23:31;1181.53;;;999.90;;
14205;SDS011;7186;48.800;9.216;2023-07-31T07:25:57;1138.53;;;999.90;;
14205;SDS011;7186;48.800;9.216;2023-07-31T07:28:22;1184.40;;;999.90;;
14205;SDS011;7186;48.800;9.216;2023-07-31T07:30:51;1166.03;;;999.90;;
14205;SDS011;7186;48.800;9.216;2023-07-31T07:33:17;1163.73;;;999.90;;
14205;SDS011;7186;48.800;9.216;2023-07-31T07:35:42;1156.90;;;999.90;;
14205;SDS011;7186;48.800;9.216;2023-07-31T07:38:08;1192.40;;;999.90;;
14205;SDS011;7186;48.800;9.216;2023-07-31T07:43:07;1183.27;;;999.90;;
14205;SDS011;7186;48.800;9.216;2023-07-31T07:45:33;1182.67;;;999.90;;
14205;SDS011;7186;48.800;9.216;2023-07-31T07:47:58;1165.03;;;999.90;;
14205;SDS011;7186;48.800;9.216;2023-07-31T07:50:24;1161.93;;;999.90;;
14205;SDS011;7186;48.800;9.216;2023-07-31T07:52:49;1170.07;;;999.90;;
14205;SDS011;7186;48.800;9.216;2023-07-31T07:55:14;1165.57;;;999.90;;
14205;SDS011;7186;48.800;9.216;2023-07-31T07:57:39;1173.10;;;999.90;;
14205;SDS011;7186;48.800;9.216;2023-07-31T08:00:05;1148.97;;;999.90;;
14205;SDS011;7186;48.800;9.216;2023-07-31T08:02:30;1167.17;;;999.90;;
14205;SDS011;7186;48.800;9.216;2023-07-31T08:04:56;1164.43;;;999.90;;
14205;SDS011;7186;48.800;9.216;2023-07-31T08:08:23;1140.13;;;999.90;;
14205;SDS011;7186;48.800;9.216;2023-07-31T08:10:48;1145.53;;;999.90;;
14205;SDS011;7186;48.800;9.216;2023-07-31T08:13:13;1138.70;;;999.90;;
14205;SDS011;7186;48.800;9.216;2023-07-31T08:15:40;1162.27;;;999.90;;
14205;SDS011;7186;48.800;9.216;2023-07-31T08:18:06;1151.93;;;999.90;;
14205;SDS011;7186;48.800;9.216;2023-07-31T08:20:31;1149.13;;;999.90;;
14205;SDS011;7186;48.800;9.216;2023-07-31T08:22:56;1155.17;;;999.90;;
14205;SDS011;7186;48.800;9.216;2023-07-31T08:25:22;1189.43;;;999.90;;
14205;SDS011;7186;48.800;9.216;2023-07-31T08:27:47;1200.43;;;999.90;;
14205;SDS011;7186;48.800;9.216;2023-07-31T08:32:08;1206.40;;;999.90;;
14205;SDS011;7186;48.800;9.216;2023-07-31T08:34:33;1213.53;;;999.90;;
14205;SDS011;7186;48.800;9.216;2023-07-31T08:36:59;1176.17;;;999.90;;
14205;SDS011;7186;48.800;9.216;2023-07-31T08:39:24;1145.60;;;999.90;;
14205;SDS011;7186;48.800;9.216;2023-07-31T08:41:49;1183.50;;;999.90;;
14205;SDS011;7186;48.800;9.216;2023-07-31T08:44:14;1217.73;;;999.90;;
14205;SDS011;7186;48.800;9.216;2023-07-31T08:46:40;1207.33;;;999.90;;
14205;SDS011;7186;48.800;9.216;2023-07-31T08:49:06;1214.20;;;999.90;;
14205;SDS011;7186;48.800;9.216;2023-07-31T08:51:33;1203.03;;;999.90;;
14205;SDS011;7186;48.800;9.216;2023-07-31T08:56:07;1207.03;;;999.90;;
14205;SDS011;7186;48.800;9.216;2023-07-31T08:58:32;1143.03;;;999.90;;
14205;SDS011;7186;48.800;9.216;2023-07-31T09:01:01;1140.67;;;999.90;;
14205;SDS011;7186;48.800;9.216;2023-07-31T09:03:26;1213.07;;;999.90;;
14205;SDS011;7186;48.800;9.216;2023-07-31T09:05:52;1216.40;;;999.90;;
14205;SDS011;7186;48.800;9.216;2023-07-31T09:08:19;1219.73;;;999.90;;
14205;SDS011;7186;48.800;9.216;2023-07-31T09:10:45;1214.17;;;999.90;;
14205;SDS011;7186;48.800;9.216;2023-07-31T09:13:14;1221.37;;;999.90;;
14205;SDS011;7186;48.800;9.216;2023-07-31T09:15:40;1238.63;;;999.90;;
14205;SDS011;7186;48.800;9.216;2023-07-31T09:20:42;1233.43;;;999.90;;
14205;SDS011;7186;48.800;9.216;2023-07-31T09:23:08;1231.90;;;999.90;;
14205;SDS011;7186;48.800;9.216;2023-07-31T09:25:34;1226.33;;;999.90;;
14205;SDS011;7186;48.800;9.216;2023-07-31T09:30:25;1228.07;;;999.90;;
14205;SDS011;7186;48.800;9.216;2023-07-31T09:32:50;1222.57;;;999.90;;
14205;SDS011;7186;48.800;9.216;2023-07-31T09:37:49;1239.40;;;999.90;;
14205;SDS011;7186;48.800;9.216;2023-07-31T09:40:24;1229.80;;;999.90;;
14205;SDS011;7186;48.800;9.216;2023-07-31T09:45:03;1219.70;;;999.90;;
14205;SDS011;7186;48.800;9.216;2023-07-31T09:47:31;1231.40;;;999.90;;
14205;SDS011;7186;48.800;9.216;2023-07-31T09:49:56;1218.93;;;999.90;;
14205;SDS011;7186;48.800;9.216;2023-07-31T09:52:22;1231.97;;;999.90;;
14205;SDS011;7186;48.800;9.216;2023-07-31T09:54:47;1223.37;;;999.90;;
14205;SDS011;7186;48.800;9.216;2023-07-31T09:57:12;1224.77;;;999.90;;
14205;SDS011;7186;48.800;9.216;2023-07-31T09:59:38;1234.07;;;999.90;;
14205;SDS011;7186;48.800;9.216;2023-07-31T10:02:03;1238.63;;;999.90;;
14205;SDS011;7186;48.800;9.216;2023-07-31T10:04:29;1221.80;;;999.90;;
14205;SDS011;7186;48.800;9.216;2023-07-31T10:09:30;1235.50;;;999.90;;
14205;SDS011;7186;48.800;9.216;2023-07-31T10:11:59;1228.67;;;999.90;;
14205;SDS011;7186;48.800;9.216;2023-07-31T10:14:24;1228.93;;;999.90;;
14205;SDS011;7186;48.800;9.216;2023-07-31T10:16:51;1225.20;;;999.90;;
14205;SDS011;7186;48.800;9.216;2023-07-31T10:19:17;1231.73;;;999.90;;
14205;SDS011;7186;48.800;9.216;2023-07-31T10:21:42;1223.07;;;999.90;;
14205;SDS011;7186;48.800;9.216;2023-07-31T10:24:08;1230.17;;;999.90;;
14205;SDS011;7186;48.800;9.216;2023-07-31T10:26:34;1240.87;;;999.90;;
14205;SDS011;7186;48.800;9.216;2023-07-31T10:29:00;1245.87;;;999.90;;
14205;SDS011;7186;48.800;9.216;2023-07-31T10:33:29;1232.67;;;999.90;;
14205;SDS011;7186;48.800;9.216;2023-07-31T10:38:39;1249.10;;;999.90;;
14205;SDS011;7186;48.800;9.216;2023-07-31T10:41:11;1246.97;;;999.90;;
14205;SDS011;7186;48.800;9.216;2023-07-31T10:43:36;1246.23;;;999.90;;
14205;SDS011;7186;48.800;9.216;2023-07-31T10:46:06;1244.37;;;999.90;;
14205;SDS011;7186;48.800;9.216;2023-07-31T10:48:32;1248.07;;;999.90;;
14205;SDS011;7186;48.800;9.216;2023-07-31T10:50:58;1246.27;;;999.90;;
14205;SDS011;7186;48.800;9.216;2023-07-31T10:58:05;1253.27;;;999.90;;
14205;SDS011;7186;48.800;9.216;2023-07-31T11:00:31;1258.23;;;999.90;;
14205;SDS011;7186;48.800;9.216;2023-07-31T11:02:57;1247.63;;;999.90;;
14205;SDS011;7186;48.800;9.216;2023-07-31T11:05:40;1248.10;;;999.90;;
14205;SDS011;7186;48.800;9.216;2023-07-31T11:10:40;1249.03;;;999.90;;
14205;SDS011;7186;48.800;9.216;2023-07-31T11:13:05;1246.53;;;999.90;;
14205;SDS011;7186;48.800;9.216;2023-07-31T11:15:31;1257.60;;;999.90;;
14205;SDS011;7186;48.800;9.216;2023-07-31T11:17:56;1249.13;;;999.90;;
14205;SDS011;7186;48.800;9.216;2023-07-31T11:21:58;1255.77;;;999.90;;
14205;SDS011;7186;48.800;9.216;2023-07-31T11:24:23;1259.53;;;999.90;;
14205;SDS011;7186;48.800;9.216;2023-07-31T11:26:49;1261.63;;;999.90;;
14205;SDS011;7186;48.800;9.216;2023-07-31T11:29:15;1272.60;;;999.90;;
14205;SDS011;7186;48.800;9.216;2023-07-31T11:31:43;1255.83;;;999.90;;
14205;SDS011;7186;48.800;9.216;2023-07-31T11:34:09;1272.47;;;999.90;;
14205;SDS011;7186;48.800;9.216;2023-07-31T11:36:34;1270.03;;;999.90;;
14205;SDS011;7186;48.800;9.216;2023-07-31T11:39:05;1269.97;;;999.90;;
14205;SDS011;7186;48.800;9.216;2023-07-31T11:41:31;1272.80;;;999.90;;
14205;SDS011;7186;48.800;9.216;2023-07-31T11:46:32;1255.23;;;999.90;;
14205;SDS011;7186;48.800;9.216;2023-07-31T11:49:00;1274.33;;;999.90;;
14205;SDS011;7186;48.800;9.216;2023-07-31T11:51:26;1255.83;;;999.90;;
14205;SDS011;7186;48.800;9.216;2023-07-31T11:53:53;1247.53;;;999.90;;
14205;SDS011;7186;48.800;9.216;2023-07-31T11:56:20;1249.73;;;999.90;;
14205;SDS011;7186;48.800;9.216;2023-07-31T11:58:51;1263.03;;;999.90;;
14205;SDS011;7186;48.800;9.216;2023-07-31T12:01:18;1251.43;;;999.90;;
14205;SDS011;7186;48.800;9.216;2023-07-31T12:03:44;1247.13;;;999.90;;
14205;SDS011;7186;48.800;9.216;2023-07-31T12:06:10;1256.57;;;999.90;;
14205;SDS011;7186;48.800;9.216;2023-07-31T12:10:45;1245.30;;;999.90;;
14205;SDS011;7186;48.800;9.216;2023-07-31T12:13:20;1262.83;;;999.90;;
14205;SDS011;7186;48.800;9.216;2023-07-31T12:15:46;1251.90;;;999.90;;
14205;SDS011;7186;48.800;9.216;2023-07-31T12:18:12;1268.50;;;999.90;;
14205;SDS011;7186;48.800;9.216;2023-07-31T12:23:06;1260.63;;;999.90;;
14205;SDS011;7186;48.800;9.216;2023-07-31T12:25:32;1255.90;;;999.90;;
14205;SDS011;7186;48.800;9.216;2023-07-31T12:27:58;1273.43;;;999.90;;
14205;SDS011;7186;48.800;9.216;2023-07-31T12:30:29;1266.47;;;999.90;;
14205;SDS011;7186;48.800;9.216;2023-07-31T12:35:15;1253.10;;;999.90;;
14205;SDS011;7186;48.800;9.216;2023-07-31T12:37:40;1257.40;;;999.90;;
14205;SDS011;7186;48.800;9.216;2023-07-31T12:40:05;1257.60;;;999.90;;
14205;SDS011;7186;48.800;9.216;2023-07-31T12:42:31;1247.70;;;999.90;;
14205;SDS011;7186;48.800;9.216;2023-07-31T12:44:56;1248.43;;;999.90;;
14205;SDS011;7186;48.800;9.216;2023-07-31T12:47:22;1246.93;;;999.90;;
14205;SDS011;7186;48.800;9.216;2023-07-31T12:49:47;1256.93;;;999.90;;
14205;SDS011;7186;48.800;9.216;2023-07-31T12:52:12;1250.37;;;999.90;;
14205;SDS011;7186;48.800;9.216;2023-07-31T12:54:38;1260.43;;;999.90;;
14205;SDS011;7186;48.800;9.216;2023-07-31T12:58:59;1241.73;;;999.90;;
14205;SDS011;7186;48.800;9.216;2023-07-31T13:01:25;1238.60;;;999.90;;
14205;SDS011;7186;48.800;9.216;2023-07-31T13:03:50;1238.80;;;999.90;;
14205;SDS011;7186;48.800;9.216;2023-07-31T13:06:15;1244.20;;;999.90;;
14205;SDS011;7186;48.800;9.216;2023-07-31T13:08:40;1243.47;;;999.90;;
14205;SDS011;7186;48.800;9.216;2023-07-31T13:11:06;1240.77;;;999.90;;
14205;SDS011;7186;48.800;9.216;2023-07-31T13:13:31;1236.50;;;999.90;;
14205;SDS011;7186;48.800;9.216;2023-07-31T13:15:56;1245.97;;;999.90;;
14205;SDS011;7186;48.800;9.216;2023-07-31T13:18:21;1236.93;;;999.90;;
14205;SDS011;7186;48.800;9.216;2023-07-31T13:23:24;1251.73;;;999.90;;
14205;SDS011;7186;48.800;9.216;2023-07-31T13:25:49;1236.40;;;999.90;;
14205;SDS011;7186;48.800;9.216;2023-07-31T13:28:14;1245.67;;;999.90;;
14205;SDS011;7186;48.800;9.216;2023-07-31T13:30:40;1256.60;;;999.90;;
14205;SDS011;7186;48.800;9.216;2023-07-31T13:33:05;1249.40;;;999.90;;
14205;SDS011;7186;48.800;9.216;2023-07-31T13:35:30;1373.93;;;999.90;;
14205;SDS011;7186;48.800;9.216;2023-07-31T13:37:56;1377.15;;;999.90;;
14205;SDS011;7186;48.800;9.216;2023-07-31T13:40:21;1272.50;;;999.90;;
14205;SDS011;7186;48.800;9.216;2023-07-31T13:42:47;1271.03;;;999.90;;
14205;SDS011;7186;48.800;9.216;2023-07-31T13:47:53;1271.63;;;999.90;;
14205;SDS011;7186;48.800;9.216;2023-07-31T13:50:19;1274.27;;;999.90;;
14205;SDS011;7186;48.800;9.216;2023-07-31T13:52:46;1402.43;;;999.90;;
14205;SDS011;7186;48.800;9.216;2023-07-31T13:55:11;1281.37;;;999.90;;
14205;SDS011;7186;48.800;9.216;2023-07-31T13:57:37;1279.50;;;999.90;;
14205;SDS011;7186;48.800;9.216;2023-07-31T14:00:02;1289.27;;;999.90;;
14205;SDS011;7186;48.800;9.216;2023-07-31T14:02:27;1270.57;;;999.90;;
14205;SDS011;7186;48.800;9.216;2023-07-31T14:04:52;1275.97;;;999.90;;
14205;SDS011;7186;48.800;9.216;2023-07-31T14:07:18;1285.73;;;999.90;;
14205;SDS011;7186;48.800;9.216;2023-07-31T14:11:22;1272.07;;;999.90;;
14205;SDS011;7186;48.800;9.216;2023-07-31T14:13:47;1291.03;;;999.90;;
14205;SDS011;7186;48.800;9.216;2023-07-31T14:16:14;1278.97;;;999.90;;
14205;SDS011;7186;48.800;9.216;2023-07-31T14:18:40;1281.60;;;999.90;;
14205;SDS011;7186;48.800;9.216;2023-07-31T14:21:05;1277.93;;;999.90;;
14205;SDS011;7186;48.800;9.216;2023-07-31T14:23:30;1290.03;;;999.90;;
14205;SDS011;7186;48.800;9.216;2023-07-31T14:25:55;1279.93;;;999.90;;
14205;SDS011;7186;48.800;9.216;2023-07-31T14:28:21;1268.00;;;999.90;;
14205;SDS011;7186;48.800;9.216;2023-07-31T14:30:46;1277.93;;;999.90;;
14205;SDS011;7186;48.800;9.216;2023-07-31T14:34:51;1276.77;;;999.90;;
14205;SDS011;7186;48.800;9.216;2023-07-31T14:37:16;1273.70;;;999.90;;
14205;SDS011;7186;48.800;9.216;2023-07-31T14:39:41;1281.20;;;999.90;;
14205;SDS011;7186;48.800;9.216;2023-07-31T14:42:07;1265.13;;;999.90;;
14205;SDS011;7186;48.800;9.216;2023-07-31T14:44:32;1271.60;;;999.90;;
14205;SDS011;7186;48.800;9.216;2023-07-31T14:46:57;1275.30;;;999.90;;
14205;SDS011;7186;48.800;9.216;2023-07-31T14:49:22;1269.20;;;999.90;;
14205;SDS011;7186;48.800;9.216;2023-07-31T14:51:48;1271.67;;;999.90;;
14205;SDS011;7186;48.800;9.216;2023-07-31T14:54:13;1295.50;;;999.90;;
14205;SDS011;7186;48.800;9.216;2023-07-31T14:58:49;1286.00;;;999.90;;
14205;SDS011;7186;48.800;9.216;2023-07-31T15:01:15;1307.30;;;999.90;;
14205;SDS011;7186;48.800;9.216;2023-07-31T15:03:40;1310.30;;;999.90;;
14205;SDS011;7186;48.800;9.216;2023-07-31T15:06:05;1306.97;;;999.90;;
14205;SDS011;7186;48.800;9.216;2023-07-31T15:08:32;1308.90;;;999.90;;
14205;SDS011;7186;48.800;9.216;2023-07-31T15:10:57;1313.40;;;999.90;;
14205;SDS011;7186;48.800;9.216;2023-07-31T15:13:23;1318.07;;;999.90;;
14205;SDS011;7186;48.800;9.216;2023-07-31T15:15:49;1314.20;;;999.90;;
14205;SDS011;7186;48.800;9.216;2023-07-31T15:18:14;1325.30;;;999.90;;
14205;SDS011;7186;48.800;9.216;2023-07-31T15:23:19;1336.70;;;999.90;;
14205;SDS011;7186;48.800;9.216;2023-07-31T15:25:44;1341.03;;;999.90;;
14205;SDS011;7186;48.800;9.216;2023-07-31T15:28:11;1334.13;;;999.90;;
14205;SDS011;7186;48.800;9.216;2023-07-31T15:30:37;1339.13;;;999.90;;